APL Denmark — A8JX9 — position and weather

sailwx.info

Track history (hours):
 
Tides and Currents Weather Stations Pressure Air Temp Water Temp Dewpoint Dewpoint Depression Visibility Wind Speed Wind Dir Waves Ship Positions

APL Denmark

Last reported at 2015-Sep-02 12:00 UTC. Time now 2015-Sep-03 23:33 UTC.
Position S 21°24' W 039°54'.

Length 277 m; beam 40 m; draft 14 m.

Type: Cargo ship. MMSI: 636091157.

Wind from 160 at 21 knots

Barometer 1021.5 mb
Air temperature 23.5 ° C
Visibility: greater than 5.4 NM
Dewpoint 23.5 ° C
Water temperature 24.0 ° C

Date/timePositionNaut miles runAvg speedWind from/ knotsBaromVisibWave heightAir tempDewpointWater temp
2015-Sep-02 12:00S 21°24' W 039°54'335 6.5 160 / 211021.5 5.4 23.523.524.0
2015-Aug-31 08:32S 24°00' W 045°15'1111.0
2015-Aug-31 07:33S 24°00' W 045°27'1111.4
2015-Aug-31 06:33S 24°01' W 045°40'1111.3
2015-Aug-31 05:33S 24°02' W 045°52'1111.4
2015-Aug-31 04:33S 24°03' W 046°04'1111.1
2015-Aug-31 03:33S 24°04' W 046°16'5 5.4
2015-Aug-31 02:33S 23°59' W 046°17'2 0.1
2015-Aug-30 03:25S 23°57' W 046°19'5 6.0
2015-Aug-30 02:33S 24°02' W 046°21'6 5.7
2015-Aug-30 01:33S 24°06' W 046°24'7 7.3
2015-Aug-30 00:33S 24°13' W 046°26'7 7.1
2015-Aug-29 23:33S 24°20' W 046°29'1313.0
2015-Aug-29 22:33S 24°32' W 046°35'1515.3
2015-Aug-29 21:33S 24°44' W 046°45'1515.3
2015-Aug-29 20:33S 24°56' W 046°55'1615.1
2015-Aug-29 19:29S 25°09' W 047°06'2015.3
2015-Aug-29 18:09S 25°25' W 047°20'1215.4
2015-Aug-29 17:24S 25°34' W 047°28'127 3.7
2015-Aug-28 07:33S 27°33' W 048°17'1615.9
2015-Aug-28 06:33S 27°49' W 048°17'1615.6
2015-Aug-28 05:33S 28°04' W 048°22'  
Track history (hours):
 
Tides and Currents Weather Stations Pressure Air Temp Water Temp Dewpoint Dewpoint Depression Visibility Wind Speed Wind Dir Waves Ship Positions

APL Denmark

Last reported at 2015-Sep-02 12:00 UTC. Time now 2015-Sep-03 23:33 UTC.
Position S 21°24' W 039°54'.

Length 277 m; beam 40 m; draft 14 m.

Type: Cargo ship. MMSI: 636091157.

Wind from 160 at 21 knots

Barometer 1021.5 mb
Air temperature 23.5 ° C
Visibility: greater than 5.4 NM
Dewpoint 23.5 ° C
Water temperature 24.0 ° C

Date/timePositionNaut miles runAvg speedWind from/ knotsBaromVisibWave heightAir tempDewpointWater temp
2015-Sep-02 12:00S 21°24' W 039°54'335 6.5 160 / 211021.5 5.4 23.523.524.0
2015-Aug-31 08:32S 24°00' W 045°15'1111.0
2015-Aug-31 07:33S 24°00' W 045°27'1111.4
2015-Aug-31 06:33S 24°01' W 045°40'1111.3
2015-Aug-31 05:33S 24°02' W 045°52'1111.4
2015-Aug-31 04:33S 24°03' W 046°04'1111.1
2015-Aug-31 03:33S 24°04' W 046°16'5 5.4
2015-Aug-31 02:33S 23°59' W 046°17'2 0.1
2015-Aug-30 03:25S 23°57' W 046°19'5 6.0
2015-Aug-30 02:33S 24°02' W 046°21'6 5.7
2015-Aug-30 01:33S 24°06' W 046°24'7 7.3
2015-Aug-30 00:33S 24°13' W 046°26'7 7.1
2015-Aug-29 23:33S 24°20' W 046°29'1313.0
2015-Aug-29 22:33S 24°32' W 046°35'1515.3
2015-Aug-29 21:33S 24°44' W 046°45'1515.3
2015-Aug-29 20:33S 24°56' W 046°55'1615.1
2015-Aug-29 19:29S 25°09' W 047°06'2015.3
2015-Aug-29 18:09S 25°25' W 047°20'1215.4
2015-Aug-29 17:24S 25°34' W 047°28'127 3.7
2015-Aug-28 07:33S 27°33' W 048°17'1615.9
2015-Aug-28 06:33S 27°49' W 048°17'1615.6
2015-Aug-28 05:33S 28°04' W 048°22'  

Dump ship's entire track history